Claymont, Delaware
Current Conditions -  °F | °C
As of 7:51 PM on Monday 26 Jan 2015 (Local Time) from KILG Reporting Station
Overcast Overcast  
Wind Chill: 17°   Ceiling: 1800
Heat Index: 29°   Visibility: 10mi
Dew Point: 22°   Wind: 16mph
Humidity: 75%   Direction: 30°NNE
Pressure: 29.74"   Gusts: 26mph
Location:  39.8°N, 75.46°W
Report Text: KILG 270051Z AUTO 03014G23KT 10SM OVC018 M02/M06 A2974 RMK AO2 SLP072 T10171056
Loading
Personal Weather Stations






























Interactive Weather Map New forecast layout! Learn more

10-Day Weather Forecast

Advertisements
Track Severe Weather on mobile